sensor_id;sensor_type;location;lat;lon;timestamp;P1;durP1;ratioP1;P2;durP2;ratioP2
62927;SDS011;51070;52.236;-0.892;2023-05-15T00:01:32;6.00;;;3.50;;
62927;SDS011;51070;52.236;-0.892;2023-05-15T00:03:57;4.90;;;3.40;;
62927;SDS011;51070;52.236;-0.892;2023-05-15T00:06:23;4.90;;;4.00;;
62927;SDS011;51070;52.236;-0.892;2023-05-15T00:08:48;5.40;;;4.80;;
62927;SDS011;51070;52.236;-0.892;2023-05-15T00:11:14;5.20;;;4.50;;
62927;SDS011;51070;52.236;-0.892;2023-05-15T00:13:39;5.00;;;4.50;;
62927;SDS011;51070;52.236;-0.892;2023-05-15T00:16:05;5.10;;;4.60;;
62927;SDS011;51070;52.236;-0.892;2023-05-15T00:18:32;5.30;;;4.10;;
62927;SDS011;51070;52.236;-0.892;2023-05-15T00:20:57;5.30;;;4.60;;
62927;SDS011;51070;52.236;-0.892;2023-05-15T00:23:23;5.00;;;4.00;;
62927;SDS011;51070;52.236;-0.892;2023-05-15T00:25:48;4.90;;;4.40;;
62927;SDS011;51070;52.236;-0.892;2023-05-15T00:28:14;4.40;;;4.00;;
62927;SDS011;51070;52.236;-0.892;2023-05-15T00:30:39;4.80;;;4.30;;
62927;SDS011;51070;52.236;-0.892;2023-05-15T00:33:05;5.30;;;3.30;;
62927;SDS011;51070;52.236;-0.892;2023-05-15T00:35:31;5.70;;;5.10;;
62927;SDS011;51070;52.236;-0.892;2023-05-15T00:37:56;5.70;;;4.80;;
62927;SDS011;51070;52.236;-0.892;2023-05-15T00:40:22;6.40;;;4.00;;
62927;SDS011;51070;52.236;-0.892;2023-05-15T00:42:49;3.70;;;3.40;;
62927;SDS011;51070;52.236;-0.892;2023-05-15T00:45:16;4.60;;;3.50;;
62927;SDS011;51070;52.236;-0.892;2023-05-15T00:47:43;3.20;;;2.90;;
62927;SDS011;51070;52.236;-0.892;2023-05-15T00:50:10;3.30;;;2.60;;
62927;SDS011;51070;52.236;-0.892;2023-05-15T00:52:36;3.00;;;2.40;;
62927;SDS011;51070;52.236;-0.892;2023-05-15T00:55:02;3.50;;;2.30;;
62927;SDS011;51070;52.236;-0.892;2023-05-15T00:57:30;2.30;;;2.00;;
62927;SDS011;51070;52.236;-0.892;2023-05-15T00:59:56;2.20;;;2.00;;
62927;SDS011;51070;52.236;-0.892;2023-05-15T01:02:22;3.60;;;2.00;;
62927;SDS011;51070;52.236;-0.892;2023-05-15T01:04:47;3.70;;;1.70;;
62927;SDS011;51070;52.236;-0.892;2023-05-15T01:07:13;2.90;;;1.20;;
62927;SDS011;51070;52.236;-0.892;2023-05-15T01:09:42;2.90;;;1.50;;
62927;SDS011;51070;52.236;-0.892;2023-05-15T01:12:09;2.70;;;1.40;;
62927;SDS011;51070;52.236;-0.892;2023-05-15T01:14:38;3.90;;;1.50;;
62927;SDS011;51070;52.236;-0.892;2023-05-15T01:17:03;6.90;;;1.60;;
62927;SDS011;51070;52.236;-0.892;2023-05-15T01:19:29;3.30;;;1.60;;
62927;SDS011;51070;52.236;-0.892;2023-05-15T01:28:11;4.30;;;1.70;;
62927;SDS011;51070;52.236;-0.892;2023-05-15T01:30:42;2.80;;;1.20;;
62927;SDS011;51070;52.236;-0.892;2023-05-15T01:33:14;5.20;;;2.00;;
62927;SDS011;51070;52.236;-0.892;2023-05-15T01:38:41;4.30;;;1.30;;
62927;SDS011;51070;52.236;-0.892;2023-05-15T01:44:14;4.00;;;1.30;;
62927;SDS011;51070;52.236;-0.892;2023-05-15T01:46:59;4.10;;;1.50;;
62927;SDS011;51070;52.236;-0.892;2023-05-15T01:49:30;6.20;;;1.50;;
62927;SDS011;51070;52.236;-0.892;2023-05-15T01:52:03;6.10;;;1.70;;
62927;SDS011;51070;52.236;-0.892;2023-05-15T01:54:33;4.30;;;1.60;;
62927;SDS011;51070;52.236;-0.892;2023-05-15T01:56:59;5.80;;;1.50;;
62927;SDS011;51070;52.236;-0.892;2023-05-15T01:59:26;8.30;;;1.80;;
62927;SDS011;51070;52.236;-0.892;2023-05-15T02:01:53;5.70;;;1.80;;
62927;SDS011;51070;52.236;-0.892;2023-05-15T02:04:21;2.40;;;1.20;;
62927;SDS011;51070;52.236;-0.892;2023-05-15T02:06:47;3.60;;;1.70;;
62927;SDS011;51070;52.236;-0.892;2023-05-15T02:09:14;6.40;;;1.80;;
62927;SDS011;51070;52.236;-0.892;2023-05-15T02:11:40;6.00;;;2.20;;
62927;SDS011;51070;52.236;-0.892;2023-05-15T02:14:07;7.70;;;2.00;;
62927;SDS011;51070;52.236;-0.892;2023-05-15T02:16:33;5.90;;;1.70;;
62927;SDS011;51070;52.236;-0.892;2023-05-15T02:18:59;3.30;;;1.50;;
62927;SDS011;51070;52.236;-0.892;2023-05-15T02:21:24;3.40;;;1.60;;
62927;SDS011;51070;52.236;-0.892;2023-05-15T02:23:50;4.70;;;1.80;;
62927;SDS011;51070;52.236;-0.892;2023-05-15T02:26:35;3.90;;;1.70;;
62927;SDS011;51070;52.236;-0.892;2023-05-15T02:29:46;8.90;;;2.60;;
62927;SDS011;51070;52.236;-0.892;2023-05-15T02:37:45;8.70;;;1.80;;
62927;SDS011;51070;52.236;-0.892;2023-05-15T02:40:13;5.80;;;1.90;;
62927;SDS011;51070;52.236;-0.892;2023-05-15T02:42:40;5.70;;;1.70;;
62927;SDS011;51070;52.236;-0.892;2023-05-15T02:45:08;5.40;;;2.10;;
62927;SDS011;51070;52.236;-0.892;2023-05-15T02:47:34;6.00;;;2.00;;
62927;SDS011;51070;52.236;-0.892;2023-05-15T02:50:01;4.10;;;1.60;;
62927;SDS011;51070;52.236;-0.892;2023-05-15T02:52:28;9.40;;;1.70;;
62927;SDS011;51070;52.236;-0.892;2023-05-15T02:54:53;3.50;;;1.50;;
62927;SDS011;51070;52.236;-0.892;2023-05-15T02:57:18;4.40;;;1.80;;
62927;SDS011;51070;52.236;-0.892;2023-05-15T02:59:44;3.00;;;1.60;;
62927;SDS011;51070;52.236;-0.892;2023-05-15T03:02:09;4.80;;;1.50;;
62927;SDS011;51070;52.236;-0.892;2023-05-15T03:04:35;6.30;;;1.60;;
62927;SDS011;51070;52.236;-0.892;2023-05-15T03:07:00;4.90;;;1.70;;
62927;SDS011;51070;52.236;-0.892;2023-05-15T03:09:25;6.70;;;1.90;;
62927;SDS011;51070;52.236;-0.892;2023-05-15T03:11:51;5.40;;;1.70;;
62927;SDS011;51070;52.236;-0.892;2023-05-15T03:14:16;4.50;;;1.50;;
62927;SDS011;51070;52.236;-0.892;2023-05-15T03:16:41;4.30;;;1.80;;
62927;SDS011;51070;52.236;-0.892;2023-05-15T03:19:07;5.80;;;1.70;;
62927;SDS011;51070;52.236;-0.892;2023-05-15T03:21:32;4.40;;;1.20;;
62927;SDS011;51070;52.236;-0.892;2023-05-15T03:23:59;3.50;;;1.30;;
62927;SDS011;51070;52.236;-0.892;2023-05-15T03:26:25;12.40;;;3.00;;
62927;SDS011;51070;52.236;-0.892;2023-05-15T03:28:51;6.50;;;1.80;;
62927;SDS011;51070;52.236;-0.892;2023-05-15T03:31:17;5.30;;;1.70;;
62927;SDS011;51070;52.236;-0.892;2023-05-15T03:33:42;5.80;;;1.80;;
62927;SDS011;51070;52.236;-0.892;2023-05-15T03:36:10;6.80;;;2.20;;
62927;SDS011;51070;52.236;-0.892;2023-05-15T03:38:35;3.30;;;1.30;;
62927;SDS011;51070;52.236;-0.892;2023-05-15T03:41:01;6.60;;;1.50;;
62927;SDS011;51070;52.236;-0.892;2023-05-15T03:43:26;5.80;;;1.70;;
62927;SDS011;51070;52.236;-0.892;2023-05-15T03:45:52;4.90;;;1.80;;
62927;SDS011;51070;52.236;-0.892;2023-05-15T03:48:17;7.60;;;2.00;;
62927;SDS011;51070;52.236;-0.892;2023-05-15T03:50:43;7.30;;;2.10;;
62927;SDS011;51070;52.236;-0.892;2023-05-15T03:53:09;7.70;;;1.70;;
62927;SDS011;51070;52.236;-0.892;2023-05-15T03:55:35;4.90;;;1.50;;
62927;SDS011;51070;52.236;-0.892;2023-05-15T03:58:00;9.70;;;1.90;;
62927;SDS011;51070;52.236;-0.892;2023-05-15T04:00:26;6.00;;;1.80;;
62927;SDS011;51070;52.236;-0.892;2023-05-15T04:02:51;5.80;;;1.50;;
62927;SDS011;51070;52.236;-0.892;2023-05-15T04:05:17;6.70;;;1.80;;
62927;SDS011;51070;52.236;-0.892;2023-05-15T04:07:43;3.50;;;1.30;;
62927;SDS011;51070;52.236;-0.892;2023-05-15T04:10:09;6.20;;;1.60;;
62927;SDS011;51070;52.236;-0.892;2023-05-15T04:12:35;5.30;;;2.20;;
62927;SDS011;51070;52.236;-0.892;2023-05-15T04:15:14;5.20;;;1.20;;
62927;SDS011;51070;52.236;-0.892;2023-05-15T04:17:47;6.20;;;1.80;;
62927;SDS011;51070;52.236;-0.892;2023-05-15T04:20:15;9.90;;;1.80;;
62927;SDS011;51070;52.236;-0.892;2023-05-15T04:22:42;6.00;;;1.30;;
62927;SDS011;51070;52.236;-0.892;2023-05-15T04:25:09;5.10;;;1.30;;
62927;SDS011;51070;52.236;-0.892;2023-05-15T04:27:35;4.50;;;1.40;;
62927;SDS011;51070;52.236;-0.892;2023-05-15T04:30:05;7.20;;;1.30;;
62927;SDS011;51070;52.236;-0.892;2023-05-15T04:32:33;5.80;;;1.50;;
62927;SDS011;51070;52.236;-0.892;2023-05-15T04:35:00;3.60;;;1.30;;
62927;SDS011;51070;52.236;-0.892;2023-05-15T04:37:27;5.50;;;1.50;;
62927;SDS011;51070;52.236;-0.892;2023-05-15T04:39:53;4.80;;;1.30;;
62927;SDS011;51070;52.236;-0.892;2023-05-15T04:42:19;6.60;;;1.50;;
62927;SDS011;51070;52.236;-0.892;2023-05-15T04:44:44;5.70;;;1.20;;
62927;SDS011;51070;52.236;-0.892;2023-05-15T04:47:11;6.20;;;1.60;;
62927;SDS011;51070;52.236;-0.892;2023-05-15T04:49:37;7.90;;;1.90;;
62927;SDS011;51070;52.236;-0.892;2023-05-15T04:52:03;6.00;;;1.50;;
62927;SDS011;51070;52.236;-0.892;2023-05-15T04:54:29;3.00;;;1.70;;
62927;SDS011;51070;52.236;-0.892;2023-05-15T04:56:54;4.50;;;1.50;;
62927;SDS011;51070;52.236;-0.892;2023-05-15T04:59:20;10.30;;;1.60;;
62927;SDS011;51070;52.236;-0.892;2023-05-15T05:01:45;5.90;;;1.80;;
62927;SDS011;51070;52.236;-0.892;2023-05-15T05:04:10;7.80;;;1.60;;
62927;SDS011;51070;52.236;-0.892;2023-05-15T05:06:36;5.60;;;1.70;;
62927;SDS011;51070;52.236;-0.892;2023-05-15T05:09:01;4.60;;;1.70;;
62927;SDS011;51070;52.236;-0.892;2023-05-15T05:11:27;6.30;;;1.30;;
62927;SDS011;51070;52.236;-0.892;2023-05-15T05:13:52;5.20;;;1.70;;
62927;SDS011;51070;52.236;-0.892;2023-05-15T05:16:18;7.30;;;1.80;;
62927;SDS011;51070;52.236;-0.892;2023-05-15T05:18:44;2.80;;;1.30;;
62927;SDS011;51070;52.236;-0.892;2023-05-15T05:21:09;5.30;;;1.60;;
62927;SDS011;51070;52.236;-0.892;2023-05-15T05:23:35;5.00;;;2.20;;
62927;SDS011;51070;52.236;-0.892;2023-05-15T05:26:01;4.00;;;1.00;;
62927;SDS011;51070;52.236;-0.892;2023-05-15T05:28:27;11.20;;;1.50;;
62927;SDS011;51070;52.236;-0.892;2023-05-15T05:30:52;4.60;;;1.40;;
62927;SDS011;51070;52.236;-0.892;2023-05-15T05:33:18;4.90;;;1.50;;
62927;SDS011;51070;52.236;-0.892;2023-05-15T05:35:43;3.80;;;1.20;;
62927;SDS011;51070;52.236;-0.892;2023-05-15T05:38:09;4.50;;;1.50;;
62927;SDS011;51070;52.236;-0.892;2023-05-15T05:40:34;6.00;;;1.30;;
62927;SDS011;51070;52.236;-0.892;2023-05-15T05:43:02;7.10;;;1.40;;
62927;SDS011;51070;52.236;-0.892;2023-05-15T05:45:28;6.40;;;1.30;;
62927;SDS011;51070;52.236;-0.892;2023-05-15T05:47:54;4.30;;;1.30;;
62927;SDS011;51070;52.236;-0.892;2023-05-15T05:50:20;9.10;;;1.70;;
62927;SDS011;51070;52.236;-0.892;2023-05-15T05:52:46;5.70;;;1.50;;
62927;SDS011;51070;52.236;-0.892;2023-05-15T05:55:11;6.10;;;1.40;;
62927;SDS011;51070;52.236;-0.892;2023-05-15T05:57:37;4.90;;;1.10;;
62927;SDS011;51070;52.236;-0.892;2023-05-15T06:00:02;5.00;;;1.50;;
62927;SDS011;51070;52.236;-0.892;2023-05-15T06:02:32;5.30;;;1.40;;
62927;SDS011;51070;52.236;-0.892;2023-05-15T06:04:58;4.30;;;1.10;;
62927;SDS011;51070;52.236;-0.892;2023-05-15T06:07:23;6.30;;;1.30;;
62927;SDS011;51070;52.236;-0.892;2023-05-15T06:09:49;5.80;;;1.40;;
62927;SDS011;51070;52.236;-0.892;2023-05-15T06:12:14;5.90;;;1.60;;
62927;SDS011;51070;52.236;-0.892;2023-05-15T06:14:39;4.90;;;1.80;;
62927;SDS011;51070;52.236;-0.892;2023-05-15T06:17:05;4.50;;;1.40;;
62927;SDS011;51070;52.236;-0.892;2023-05-15T06:19:30;5.60;;;1.50;;
62927;SDS011;51070;52.236;-0.892;2023-05-15T06:21:56;4.80;;;1.60;;
62927;SDS011;51070;52.236;-0.892;2023-05-15T06:24:22;4.20;;;1.40;;
62927;SDS011;51070;52.236;-0.892;2023-05-15T06:26:47;4.00;;;1.20;;
62927;SDS011;51070;52.236;-0.892;2023-05-15T06:29:12;4.60;;;1.30;;
62927;SDS011;51070;52.236;-0.892;2023-05-15T06:31:38;8.00;;;1.20;;
62927;SDS011;51070;52.236;-0.892;2023-05-15T06:34:03;3.60;;;1.40;;
62927;SDS011;51070;52.236;-0.892;2023-05-15T06:36:29;3.80;;;1.40;;
62927;SDS011;51070;52.236;-0.892;2023-05-15T06:38:54;4.40;;;1.30;;
62927;SDS011;51070;52.236;-0.892;2023-05-15T06:41:19;6.40;;;2.00;;
62927;SDS011;51070;52.236;-0.892;2023-05-15T06:43:45;4.30;;;1.40;;
62927;SDS011;51070;52.236;-0.892;2023-05-15T06:46:11;6.60;;;1.70;;
62927;SDS011;51070;52.236;-0.892;2023-05-15T06:48:36;6.70;;;2.20;;
62927;SDS011;51070;52.236;-0.892;2023-05-15T06:51:01;4.60;;;1.40;;
62927;SDS011;51070;52.236;-0.892;2023-05-15T06:53:28;3.80;;;1.70;;
62927;SDS011;51070;52.236;-0.892;2023-05-15T06:55:54;4.40;;;1.40;;
62927;SDS011;51070;52.236;-0.892;2023-05-15T06:58:19;6.80;;;1.90;;
62927;SDS011;51070;52.236;-0.892;2023-05-15T07:00:44;6.40;;;1.50;;
62927;SDS011;51070;52.236;-0.892;2023-05-15T07:03:10;4.30;;;1.60;;
62927;SDS011;51070;52.236;-0.892;2023-05-15T07:05:38;5.60;;;1.60;;
62927;SDS011;51070;52.236;-0.892;2023-05-15T07:08:04;7.00;;;1.80;;
62927;SDS011;51070;52.236;-0.892;2023-05-15T07:10:29;4.00;;;1.70;;
62927;SDS011;51070;52.236;-0.892;2023-05-15T07:12:55;4.90;;;1.70;;
62927;SDS011;51070;52.236;-0.892;2023-05-15T07:15:20;4.40;;;1.60;;
62927;SDS011;51070;52.236;-0.892;2023-05-15T07:17:46;6.90;;;1.80;;
62927;SDS011;51070;52.236;-0.892;2023-05-15T07:20:11;6.90;;;1.80;;
62927;SDS011;51070;52.236;-0.892;2023-05-15T07:22:37;4.60;;;1.50;;
62927;SDS011;51070;52.236;-0.892;2023-05-15T07:25:03;6.60;;;1.70;;
62927;SDS011;51070;52.236;-0.892;2023-05-15T07:27:29;5.50;;;1.20;;
62927;SDS011;51070;52.236;-0.892;2023-05-15T07:29:54;5.70;;;2.10;;
62927;SDS011;51070;52.236;-0.892;2023-05-15T07:32:20;3.40;;;1.40;;
62927;SDS011;51070;52.236;-0.892;2023-05-15T07:34:45;3.60;;;1.40;;
62927;SDS011;51070;52.236;-0.892;2023-05-15T07:37:10;5.60;;;1.40;;
62927;SDS011;51070;52.236;-0.892;2023-05-15T07:39:36;6.80;;;1.60;;
62927;SDS011;51070;52.236;-0.892;2023-05-15T07:42:01;5.40;;;1.40;;
62927;SDS011;51070;52.236;-0.892;2023-05-15T07:44:27;3.80;;;1.20;;
62927;SDS011;51070;52.236;-0.892;2023-05-15T07:46:53;2.90;;;1.20;;
62927;SDS011;51070;52.236;-0.892;2023-05-15T07:49:20;4.70;;;1.60;;
62927;SDS011;51070;52.236;-0.892;2023-05-15T07:51:45;3.90;;;1.70;;
62927;SDS011;51070;52.236;-0.892;2023-05-15T07:54:11;4.90;;;1.60;;
62927;SDS011;51070;52.236;-0.892;2023-05-15T07:56:36;4.50;;;1.20;;
62927;SDS011;51070;52.236;-0.892;2023-05-15T07:59:02;4.20;;;1.40;;
62927;SDS011;51070;52.236;-0.892;2023-05-15T08:01:28;4.80;;;1.30;;
62927;SDS011;51070;52.236;-0.892;2023-05-15T08:03:53;3.90;;;1.80;;
62927;SDS011;51070;52.236;-0.892;2023-05-15T08:06:19;3.40;;;1.30;;
62927;SDS011;51070;52.236;-0.892;2023-05-15T08:08:44;6.10;;;1.50;;
62927;SDS011;51070;52.236;-0.892;2023-05-15T08:11:09;3.90;;;1.40;;
62927;SDS011;51070;52.236;-0.892;2023-05-15T08:13:35;2.60;;;1.40;;
62927;SDS011;51070;52.236;-0.892;2023-05-15T08:16:00;3.40;;;1.40;;
62927;SDS011;51070;52.236;-0.892;2023-05-15T08:18:26;4.20;;;1.30;;
62927;SDS011;51070;52.236;-0.892;2023-05-15T08:20:51;5.60;;;1.80;;
62927;SDS011;51070;52.236;-0.892;2023-05-15T08:23:16;4.50;;;1.80;;
62927;SDS011;51070;52.236;-0.892;2023-05-15T08:25:42;5.90;;;2.00;;
62927;SDS011;51070;52.236;-0.892;2023-05-15T08:28:07;4.50;;;1.40;;
62927;SDS011;51070;52.236;-0.892;2023-05-15T08:30:34;3.90;;;1.10;;
62927;SDS011;51070;52.236;-0.892;2023-05-15T08:33:00;5.20;;;1.30;;
62927;SDS011;51070;52.236;-0.892;2023-05-15T08:35:25;2.70;;;1.20;;
62927;SDS011;51070;52.236;-0.892;2023-05-15T08:37:51;5.80;;;1.60;;
62927;SDS011;51070;52.236;-0.892;2023-05-15T08:40:16;4.50;;;1.40;;
62927;SDS011;51070;52.236;-0.892;2023-05-15T08:42:42;2.30;;;1.20;;
62927;SDS011;51070;52.236;-0.892;2023-05-15T08:45:11;4.90;;;1.40;;
62927;SDS011;51070;52.236;-0.892;2023-05-15T08:47:38;5.50;;;1.50;;
62927;SDS011;51070;52.236;-0.892;2023-05-15T08:50:06;3.60;;;1.30;;
62927;SDS011;51070;52.236;-0.892;2023-05-15T08:52:36;4.20;;;1.50;;
62927;SDS011;51070;52.236;-0.892;2023-05-15T08:55:02;3.80;;;1.20;;
62927;SDS011;51070;52.236;-0.892;2023-05-15T08:57:28;3.70;;;1.20;;
62927;SDS011;51070;52.236;-0.892;2023-05-15T08:59:56;6.40;;;1.90;;
62927;SDS011;51070;52.236;-0.892;2023-05-15T09:02:22;5.20;;;1.30;;
62927;SDS011;51070;52.236;-0.892;2023-05-15T09:07:14;5.30;;;1.30;;
62927;SDS011;51070;52.236;-0.892;2023-05-15T09:09:41;5.10;;;1.10;;
62927;SDS011;51070;52.236;-0.892;2023-05-15T09:12:13;2.70;;;1.10;;
62927;SDS011;51070;52.236;-0.892;2023-05-15T09:14:40;6.50;;;1.30;;
62927;SDS011;51070;52.236;-0.892;2023-05-15T09:17:08;3.90;;;1.30;;
62927;SDS011;51070;52.236;-0.892;2023-05-15T09:19:34;4.30;;;1.50;;
62927;SDS011;51070;52.236;-0.892;2023-05-15T09:22:18;3.30;;;1.40;;
62927;SDS011;51070;52.236;-0.892;2023-05-15T09:24:50;4.50;;;1.90;;
62927;SDS011;51070;52.236;-0.892;2023-05-15T09:29:43;3.00;;;1.40;;
62927;SDS011;51070;52.236;-0.892;2023-05-15T09:32:09;2.80;;;1.00;;
62927;SDS011;51070;52.236;-0.892;2023-05-15T09:34:39;5.20;;;1.50;;
62927;SDS011;51070;52.236;-0.892;2023-05-15T09:37:07;3.80;;;1.60;;
62927;SDS011;51070;52.236;-0.892;2023-05-15T09:39:42;3.80;;;1.30;;
62927;SDS011;51070;52.236;-0.892;2023-05-15T09:42:09;4.10;;;1.00;;
62927;SDS011;51070;52.236;-0.892;2023-05-15T09:44:39;2.10;;;1.20;;
62927;SDS011;51070;52.236;-0.892;2023-05-15T09:47:12;4.00;;;1.20;;
62927;SDS011;51070;52.236;-0.892;2023-05-15T09:49:38;4.80;;;1.60;;
62927;SDS011;51070;52.236;-0.892;2023-05-15T09:52:07;4.70;;;1.40;;
62927;SDS011;51070;52.236;-0.892;2023-05-15T09:54:34;2.90;;;1.10;;
62927;SDS011;51070;52.236;-0.892;2023-05-15T09:57:11;4.00;;;1.20;;
62927;SDS011;51070;52.236;-0.892;2023-05-15T09:59:47;3.00;;;1.20;;
62927;SDS011;51070;52.236;-0.892;2023-05-15T10:02:21;3.00;;;1.20;;
62927;SDS011;51070;52.236;-0.892;2023-05-15T10:04:58;4.30;;;1.20;;
62927;SDS011;51070;52.236;-0.892;2023-05-15T10:07:31;4.20;;;1.30;;
62927;SDS011;51070;52.236;-0.892;2023-05-15T10:10:00;3.30;;;1.30;;
62927;SDS011;51070;52.236;-0.892;2023-05-15T10:12:28;5.00;;;1.40;;
62927;SDS011;51070;52.236;-0.892;2023-05-15T10:14:56;4.00;;;1.20;;
62927;SDS011;51070;52.236;-0.892;2023-05-15T10:17:24;3.40;;;1.30;;
62927;SDS011;51070;52.236;-0.892;2023-05-15T10:19:50;3.70;;;1.20;;
62927;SDS011;51070;52.236;-0.892;2023-05-15T10:22:21;3.80;;;1.20;;
62927;SDS011;51070;52.236;-0.892;2023-05-15T10:24:56;6.80;;;1.30;;
62927;SDS011;51070;52.236;-0.892;2023-05-15T10:27:34;2.10;;;1.20;;
62927;SDS011;51070;52.236;-0.892;2023-05-15T10:30:02;4.40;;;1.10;;
62927;SDS011;51070;52.236;-0.892;2023-05-15T10:32:28;2.40;;;0.90;;
62927;SDS011;51070;52.236;-0.892;2023-05-15T10:34:54;4.70;;;1.30;;
62927;SDS011;51070;52.236;-0.892;2023-05-15T10:37:21;3.00;;;1.10;;
62927;SDS011;51070;52.236;-0.892;2023-05-15T10:39:48;7.10;;;1.70;;
62927;SDS011;51070;52.236;-0.892;2023-05-15T10:42:15;2.40;;;0.90;;
62927;SDS011;51070;52.236;-0.892;2023-05-15T10:44:42;3.00;;;1.10;;
62927;SDS011;51070;52.236;-0.892;2023-05-15T10:47:07;2.00;;;1.30;;
62927;SDS011;51070;52.236;-0.892;2023-05-15T10:49:33;3.90;;;1.10;;
62927;SDS011;51070;52.236;-0.892;2023-05-15T10:52:00;2.70;;;1.10;;
62927;SDS011;51070;52.236;-0.892;2023-05-15T10:54:27;4.30;;;1.40;;
62927;SDS011;51070;52.236;-0.892;2023-05-15T10:56:54;4.30;;;1.70;;
62927;SDS011;51070;52.236;-0.892;2023-05-15T10:59:21;4.20;;;1.30;;
62927;SDS011;51070;52.236;-0.892;2023-05-15T11:01:56;4.00;;;1.10;;
62927;SDS011;51070;52.236;-0.892;2023-05-15T11:04:22;2.40;;;1.30;;
62927;SDS011;51070;52.236;-0.892;2023-05-15T11:06:48;3.20;;;1.00;;
62927;SDS011;51070;52.236;-0.892;2023-05-15T11:14:23;3.10;;;1.20;;
62927;SDS011;51070;52.236;-0.892;2023-05-15T11:22:26;6.10;;;1.70;;
62927;SDS011;51070;52.236;-0.892;2023-05-15T11:24:53;2.90;;;1.40;;
62927;SDS011;51070;52.236;-0.892;2023-05-15T11:27:22;3.20;;;1.30;;
62927;SDS011;51070;52.236;-0.892;2023-05-15T11:30:09;1.60;;;1.00;;
62927;SDS011;51070;52.236;-0.892;2023-05-15T11:35:09;4.30;;;1.20;;
62927;SDS011;51070;52.236;-0.892;2023-05-15T11:40:06;4.60;;;1.20;;
62927;SDS011;51070;52.236;-0.892;2023-05-15T11:42:33;3.70;;;0.90;;
62927;SDS011;51070;52.236;-0.892;2023-05-15T11:44:58;4.80;;;1.60;;
62927;SDS011;51070;52.236;-0.892;2023-05-15T11:47:24;5.10;;;1.10;;
62927;SDS011;51070;52.236;-0.892;2023-05-15T11:49:50;3.60;;;1.00;;
62927;SDS011;51070;52.236;-0.892;2023-05-15T11:52:17;2.70;;;1.00;;
62927;SDS011;51070;52.236;-0.892;2023-05-15T11:54:42;6.90;;;1.10;;
62927;SDS011;51070;52.236;-0.892;2023-05-15T11:57:08;2.30;;;0.90;;
62927;SDS011;51070;52.236;-0.892;2023-05-15T11:59:34;2.90;;;1.10;;
62927;SDS011;51070;52.236;-0.892;2023-05-15T12:01:59;1.30;;;0.90;;
62927;SDS011;51070;52.236;-0.892;2023-05-15T12:04:25;3.20;;;1.10;;
62927;SDS011;51070;52.236;-0.892;2023-05-15T12:06:50;2.90;;;1.40;;
62927;SDS011;51070;52.236;-0.892;2023-05-15T12:09:16;6.60;;;1.60;;
62927;SDS011;51070;52.236;-0.892;2023-05-15T12:11:50;4.90;;;1.30;;
62927;SDS011;51070;52.236;-0.892;2023-05-15T12:14:16;2.50;;;0.90;;
62927;SDS011;51070;52.236;-0.892;2023-05-15T12:16:41;2.40;;;0.90;;
62927;SDS011;51070;52.236;-0.892;2023-05-15T12:19:07;2.10;;;0.70;;
62927;SDS011;51070;52.236;-0.892;2023-05-15T12:21:34;2.30;;;0.80;;
62927;SDS011;51070;52.236;-0.892;2023-05-15T12:23:59;2.50;;;0.90;;
62927;SDS011;51070;52.236;-0.892;2023-05-15T12:26:25;3.00;;;0.80;;
62927;SDS011;51070;52.236;-0.892;2023-05-15T12:28:52;2.40;;;0.80;;
62927;SDS011;51070;52.236;-0.892;2023-05-15T12:31:19;4.70;;;1.30;;
62927;SDS011;51070;52.236;-0.892;2023-05-15T12:33:45;2.80;;;1.00;;
62927;SDS011;51070;52.236;-0.892;2023-05-15T12:36:11;3.80;;;0.90;;
62927;SDS011;51070;52.236;-0.892;2023-05-15T12:38:37;3.50;;;1.40;;
62927;SDS011;51070;52.236;-0.892;2023-05-15T12:41:04;2.30;;;0.90;;
62927;SDS011;51070;52.236;-0.892;2023-05-15T12:43:30;2.60;;;0.90;;
62927;SDS011;51070;52.236;-0.892;2023-05-15T12:45:56;2.40;;;0.80;;
62927;SDS011;51070;52.236;-0.892;2023-05-15T12:48:26;1.80;;;0.80;;
62927;SDS011;51070;52.236;-0.892;2023-05-15T12:50:54;1.20;;;0.70;;
62927;SDS011;51070;52.236;-0.892;2023-05-15T12:53:20;2.20;;;0.60;;
62927;SDS011;51070;52.236;-0.892;2023-05-15T12:55:46;3.10;;;1.10;;
62927;SDS011;51070;52.236;-0.892;2023-05-15T12:58:13;2.10;;;0.70;;
62927;SDS011;51070;52.236;-0.892;2023-05-15T13:00:41;5.20;;;3.00;;
62927;SDS011;51070;52.236;-0.892;2023-05-15T13:03:08;2.70;;;1.40;;
62927;SDS011;51070;52.236;-0.892;2023-05-15T13:05:35;2.60;;;1.20;;
62927;SDS011;51070;52.236;-0.892;2023-05-15T13:08:03;3.70;;;1.50;;
62927;SDS011;51070;52.236;-0.892;2023-05-15T13:10:31;3.10;;;1.50;;
62927;SDS011;51070;52.236;-0.892;2023-05-15T13:12:57;2.80;;;1.00;;
62927;SDS011;51070;52.236;-0.892;2023-05-15T13:15:44;3.00;;;1.40;;
62927;SDS011;51070;52.236;-0.892;2023-05-15T13:18:09;4.30;;;1.60;;
62927;SDS011;51070;52.236;-0.892;2023-05-15T13:20:39;2.70;;;1.20;;
62927;SDS011;51070;52.236;-0.892;2023-05-15T13:23:10;5.90;;;1.00;;
62927;SDS011;51070;52.236;-0.892;2023-05-15T13:25:38;3.30;;;1.20;;
62927;SDS011;51070;52.236;-0.892;2023-05-15T13:28:05;3.30;;;0.90;;
62927;SDS011;51070;52.236;-0.892;2023-05-15T13:30:31;2.70;;;1.00;;
62927;SDS011;51070;52.236;-0.892;2023-05-15T13:33:03;4.10;;;1.40;;
62927;SDS011;51070;52.236;-0.892;2023-05-15T13:35:28;4.70;;;1.10;;
62927;SDS011;51070;52.236;-0.892;2023-05-15T13:37:54;2.00;;;1.20;;
62927;SDS011;51070;52.236;-0.892;2023-05-15T13:40:20;3.00;;;1.10;;
62927;SDS011;51070;52.236;-0.892;2023-05-15T13:42:46;1.90;;;0.90;;
62927;SDS011;51070;52.236;-0.892;2023-05-15T13:45:12;4.60;;;1.00;;
62927;SDS011;51070;52.236;-0.892;2023-05-15T13:47:39;2.30;;;0.90;;
62927;SDS011;51070;52.236;-0.892;2023-05-15T13:50:05;4.90;;;0.80;;
62927;SDS011;51070;52.236;-0.892;2023-05-15T13:52:32;3.50;;;1.30;;
62927;SDS011;51070;52.236;-0.892;2023-05-15T13:54:57;3.60;;;1.00;;
62927;SDS011;51070;52.236;-0.892;2023-05-15T13:57:22;5.30;;;1.40;;
62927;SDS011;51070;52.236;-0.892;2023-05-15T13:59:48;3.10;;;1.10;;
62927;SDS011;51070;52.236;-0.892;2023-05-15T14:02:13;1.50;;;0.70;;
62927;SDS011;51070;52.236;-0.892;2023-05-15T14:04:39;3.20;;;1.20;;
62927;SDS011;51070;52.236;-0.892;2023-05-15T14:07:04;3.70;;;0.70;;
62927;SDS011;51070;52.236;-0.892;2023-05-15T14:09:30;1.80;;;0.80;;
62927;SDS011;51070;52.236;-0.892;2023-05-15T14:11:55;2.20;;;0.70;;
62927;SDS011;51070;52.236;-0.892;2023-05-15T14:14:21;2.40;;;1.10;;
62927;SDS011;51070;52.236;-0.892;2023-05-15T14:16:46;2.00;;;0.70;;
62927;SDS011;51070;52.236;-0.892;2023-05-15T14:19:11;2.80;;;1.10;;
62927;SDS011;51070;52.236;-0.892;2023-05-15T14:21:37;3.20;;;1.00;;
62927;SDS011;51070;52.236;-0.892;2023-05-15T14:24:04;7.70;;;1.50;;
62927;SDS011;51070;52.236;-0.892;2023-05-15T14:26:30;3.70;;;1.10;;
62927;SDS011;51070;52.236;-0.892;2023-05-15T14:28:56;3.00;;;1.00;;
62927;SDS011;51070;52.236;-0.892;2023-05-15T14:31:21;2.80;;;1.20;;
62927;SDS011;51070;52.236;-0.892;2023-05-15T14:33:47;1.60;;;0.90;;
62927;SDS011;51070;52.236;-0.892;2023-05-15T14:36:13;2.80;;;0.90;;
62927;SDS011;51070;52.236;-0.892;2023-05-15T14:38:38;2.30;;;0.70;;
62927;SDS011;51070;52.236;-0.892;2023-05-15T14:41:04;3.20;;;1.10;;
62927;SDS011;51070;52.236;-0.892;2023-05-15T14:43:30;2.20;;;0.70;;
62927;SDS011;51070;52.236;-0.892;2023-05-15T14:45:55;1.40;;;1.00;;
62927;SDS011;51070;52.236;-0.892;2023-05-15T14:48:20;2.00;;;1.10;;
62927;SDS011;51070;52.236;-0.892;2023-05-15T14:50:46;4.60;;;1.10;;
62927;SDS011;51070;52.236;-0.892;2023-05-15T14:53:11;3.20;;;1.00;;
62927;SDS011;51070;52.236;-0.892;2023-05-15T14:55:37;6.30;;;1.90;;
62927;SDS011;51070;52.236;-0.892;2023-05-15T14:58:02;3.80;;;1.70;;
62927;SDS011;51070;52.236;-0.892;2023-05-15T15:00:27;4.50;;;2.30;;
62927;SDS011;51070;52.236;-0.892;2023-05-15T15:02:53;2.10;;;1.00;;
62927;SDS011;51070;52.236;-0.892;2023-05-15T15:05:18;5.20;;;1.20;;
62927;SDS011;51070;52.236;-0.892;2023-05-15T15:08:00;2.00;;;1.20;;
62927;SDS011;51070;52.236;-0.892;2023-05-15T15:10:29;2.70;;;1.10;;